Hovedside
METAR-TAF:

METAR-TAF

Lufthavner :

Dubai, De forente arabiske emirater

Dubai internasjonale lufthavn

breddegrad: 25-15-10N, lengdegrad: 055-21-52E, høyde over havet: 8 m

Gjeldene værobservasjon

Denne rapporten ble laget for 30 minutter siden, klokken 18:00 UTC
Vind 3 kt fra Øst, skiftende mellom Nord-nordøst og Sørøst
Temperatur 31°C
Luftfuktighet 40%
Trykk 1010 hPa
Sikt 10 km eller mer
ingen skyer under 1500 m og ingen bygeskyer

METAR: OMDB 241800Z 08003KT 020V130 CAVOK 31/16 Q1010 NOSIG

Tid: 22:30 (18:30 UTC)

Varsel

Denne rapporten ble laget for 1 time og 36 minutter siden, klokken 16:54 UTC
Varsel gyldig fra 24. klokken 18 UTC til 26. klokken 00 UTC
Vind 2 kt fra skiftende retning
Sikt 10 km eller mer
ingen skyer under 1500 m og ingen bygeskyer
Blir
fra 25. klokken 07 UTC til 25. klokken 09 UTC
Vind 15 kt fra Nordvest
Blir
fra 25. klokken 15 UTC til 25. klokken 17 UTC
Vind 5 kt fra Øst

TAF: OMDB 241654Z 2418/2600 VRB02KT CAVOK BECMG 2507/2509 32015KT BECMG 2515/2517 10005KT

Værobservasjoner og værvarsel for over 4000 flyplasser (METAR- og TAF-rapporter).

Tilgjengelige stasjoner er representert av de røde og gule prikkene på kartet.

Hold musepekeren over prikken for å se navnet på stasjonen.

Klikk så for å se værobservasjoner og -varsler.

For å forandre kartet kan du klikke på den grønne knappen med svart kryss for å zoome inn, på den grønne knappen med strek for å zoome ut, eller på de grønne pilene for å se tilstøtende kart.


METAR-TAF: